Time;durP1;ratioP1;P1;durP2;ratioP2;P2;SDS_P1;SDS_P2;PMS_P1;PMS_P2;Temp;Humidity;BMP_temperature;BMP_pressure;BME280_temperature;BME280_humidity;BME280_pressure;Samples;Min_cycle;Max_cycle;Signal;HPM_P1;HPM_P2
2022/03/29 00:02:31;;;;;;;23.83;11.30;;;10.50;99.90;;;;;;5127191;28;20445;-82
2022/03/29 00:05:16;;;;;;;15.07;10.63;;;10.40;99.90;;;;;;5123943;28;20455;-82
2022/03/29 00:08:01;;;;;;;14.37;10.27;;;10.50;99.90;;;;;;5123780;28;20429;-82
2022/03/29 00:10:46;;;;;;;16.57;10.17;;;10.50;99.90;;;;;;5082900;28;20452;-82
2022/03/29 00:13:30;;;;;;;10.43;8.50;;;10.40;99.90;;;;;;5083096;28;20764;-82
2022/03/29 00:16:14;;;;;;;14.93;9.43;;;10.30;99.90;;;;;;5083063;28;20472;-82
2022/03/29 00:18:59;;;;;;;16.43;9.87;;;10.20;99.90;;;;;;5082703;28;20388;-82
2022/03/29 00:21:44;;;;;;;16.37;9.57;;;10.10;99.90;;;;;;5082390;28;20439;-82
2022/03/29 00:24:28;;;;;;;16.77;11.30;;;10.00;99.90;;;;;;5082686;28;20409;-82
2022/03/29 00:27:13;;;;;;;22.40;8.83;;;10.00;99.90;;;;;;5083076;28;20417;-82
2022/03/29 00:29:58;;;;;;;15.37;8.67;;;9.80;99.90;;;;;;5082855;28;20444;-82
2022/03/29 00:32:44;;;;;;;20.93;10.63;;;9.70;99.90;;;;;;5081821;28;20401;-82
2022/03/29 00:35:28;;;;;;;22.47;12.33;;;9.70;99.90;;;;;;5082971;28;20385;-82
2022/03/29 00:38:14;;;;;;;12.90;8.87;;;9.70;99.90;;;;;;5082996;28;20393;-82
2022/03/29 00:40:59;;;;;;;15.23;10.73;;;9.70;99.90;;;;;;5082861;28;20393;-82
2022/03/29 00:43:43;;;;;;;19.23;10.97;;;9.70;99.90;;;;;;5082791;28;20762;-82
2022/03/29 00:46:28;;;;;;;15.17;9.70;;;9.60;99.90;;;;;;5082352;28;20939;-82
2022/03/29 00:49:13;;;;;;;10.70;8.90;;;9.40;99.90;;;;;;5082210;28;20896;-82
2022/03/29 00:52:01;;;;;;;10.27;8.07;;;9.30;99.90;;;;;;5083224;28;20397;-83
2022/03/29 00:54:46;;;;;;;12.43;9.10;;;9.30;99.90;;;;;;5083646;28;20445;-82
2022/03/29 00:57:32;;;;;;;12.13;9.40;;;9.00;99.90;;;;;;5084051;28;20434;-83
2022/03/29 01:00:17;;;;;;;15.50;11.00;;;9.00;99.90;;;;;;5083441;28;20449;-82
2022/03/29 01:03:03;;;;;;;9.33;8.33;;;9.00;99.90;;;;;;5083622;28;20428;-82
2022/03/29 01:05:47;;;;;;;16.23;9.13;;;9.00;99.90;;;;;;5083757;28;20892;-82
2022/03/29 01:08:31;;;;;;;22.20;10.20;;;9.00;99.90;;;;;;5087353;28;20774;-83
2022/03/29 01:11:16;;;;;;;12.27;8.97;;;9.00;99.90;;;;;;5097033;28;20504;-81
2022/03/29 01:14:02;;;;;;;9.67;8.47;;;8.90;99.90;;;;;;5123276;28;20839;-82
2022/03/29 01:19:47;;;;;;;11.53;10.03;;;8.70;99.90;;;;;;5122576;28;20467;-82
2022/03/29 01:22:33;;;;;;;13.67;9.03;;;8.50;99.90;;;;;;5122419;28;20383;-82
2022/03/29 01:25:24;;;;;;;10.37;8.17;;;8.20;99.90;;;;;;5107045;28;20391;-82
2022/03/29 01:28:11;;;;;;;11.70;8.53;;;8.30;99.90;;;;;;5122274;28;20383;-82
2022/03/29 01:30:56;;;;;;;14.37;9.47;;;8.60;99.90;;;;;;5106759;28;20507;-82
2022/03/29 01:33:42;;;;;;;12.80;9.90;;;8.80;99.90;;;;;;5106963;28;20479;-81
2022/03/29 01:36:28;;;;;;;15.00;8.00;;;9.10;99.90;;;;;;5121741;28;20383;-83
2022/03/29 01:39:12;;;;;;;12.03;7.63;;;9.20;99.90;;;;;;5122260;28;20410;-81
2022/03/29 01:41:57;;;;;;;11.60;8.00;;;9.20;99.90;;;;;;5106679;28;20397;-82
2022/03/29 01:44:41;;;;;;;22.63;10.00;;;9.50;99.90;;;;;;5122643;28;20391;-82
2022/03/29 01:47:25;;;;;;;12.00;8.43;;;9.70;99.90;;;;;;5122625;28;20437;-82
2022/03/29 01:50:13;;;;;;;20.50;9.70;;;9.90;99.90;;;;;;5121678;28;20435;-82
2022/03/29 01:52:58;;;;;;;14.37;9.80;;;10.20;99.90;;;;;;5122543;28;20399;-82
2022/03/29 01:55:42;;;;;;;13.80;9.73;;;10.30;99.90;;;;;;5123441;28;20500;-82
2022/03/29 01:58:30;;;;;;;12.07;8.87;;;10.40;99.90;;;;;;5122289;28;20371;-82
2022/03/29 02:01:16;;;;;;;16.63;9.60;;;10.30;99.90;;;;;;5121825;28;20417;-82
2022/03/29 02:04:00;;;;;;;14.20;8.50;;;10.40;99.90;;;;;;5122035;28;20418;-81
2022/03/29 02:06:45;;;;;;;12.63;8.20;;;10.30;99.90;;;;;;5121648;28;20445;-81
2022/03/29 02:09:29;;;;;;;12.57;10.30;;;10.40;99.90;;;;;;5121209;28;20516;-81
2022/03/29 02:12:14;;;;;;;13.27;9.53;;;10.40;99.90;;;;;;5122020;28;20390;-82
2022/03/29 02:14:59;;;;;;;13.67;12.13;;;10.50;99.90;;;;;;5106118;28;20397;-82
2022/03/29 02:17:45;;;;;;;15.70;10.40;;;10.50;99.90;;;;;;5121395;28;20399;-82
2022/03/29 02:20:29;;;;;;;16.13;9.77;;;10.30;99.90;;;;;;5105940;28;20383;-82
2022/03/29 02:23:15;;;;;;;12.50;10.37;;;10.30;99.90;;;;;;5121365;28;20445;-82
2022/03/29 02:26:04;;;;;;;11.70;10.50;;;10.40;99.90;;;;;;5106117;28;20378;-82
2022/03/29 02:28:48;;;;;;;17.00;10.13;;;10.40;99.90;;;;;;5121101;28;20392;-82
2022/03/29 02:31:32;;;;;;;15.03;10.63;;;10.30;99.90;;;;;;5121627;28;20522;-81
2022/03/29 02:34:17;;;;;;;12.20;7.77;;;10.20;99.90;;;;;;5120845;28;20444;-82
2022/03/29 02:37:02;;;;;;;15.13;9.53;;;10.30;99.90;;;;;;5121798;28;20379;-82
2022/03/29 02:39:46;;;;;;;23.20;9.60;;;10.30;99.90;;;;;;5121637;28;20495;-82
2022/03/29 02:42:32;;;;;;;12.67;8.40;;;10.30;99.90;;;;;;5121167;28;20411;-82
2022/03/29 02:45:18;;;;;;;15.40;8.37;;;10.20;99.90;;;;;;5105303;28;20403;-82
2022/03/29 02:48:03;;;;;;;17.83;9.37;;;10.10;99.90;;;;;;5121199;28;20384;-81
2022/03/29 02:50:48;;;;;;;16.40;9.27;;;10.20;99.90;;;;;;5121111;28;20462;-83
2022/03/29 02:53:33;;;;;;;11.03;7.97;;;10.10;99.90;;;;;;5121229;28;20387;-82
2022/03/29 02:56:17;;;;;;;14.10;8.50;;;10.10;99.90;;;;;;5121810;28;20946;-81
2022/03/29 02:59:03;;;;;;;12.87;8.37;;;10.20;99.90;;;;;;5122260;28;20402;-82
2022/03/29 03:01:47;;;;;;;11.23;7.00;;;10.20;99.90;;;;;;5099414;28;20492;-82
2022/03/29 03:04:32;;;;;;;15.37;10.20;;;10.20;99.90;;;;;;5102373;28;20375;-82
2022/03/29 03:07:17;;;;;;;13.07;8.80;;;10.10;99.90;;;;;;5105769;28;20391;-82
2022/03/29 03:10:01;;;;;;;15.40;10.17;;;10.10;99.90;;;;;;5125834;28;20489;-81
2022/03/29 03:12:48;;;;;;;13.00;9.67;;;10.10;99.90;;;;;;5122656;28;20383;-82
2022/03/29 03:15:32;;;;;;;11.53;8.57;;;10.20;99.90;;;;;;5121159;28;20981;-82
2022/03/29 03:18:17;;;;;;;12.20;7.90;;;10.10;99.90;;;;;;5121701;28;20383;-82
2022/03/29 03:21:03;;;;;;;18.57;9.73;;;10.10;99.90;;;;;;5120393;28;20410;-81
2022/03/29 03:23:48;;;;;;;15.13;10.10;;;10.10;99.90;;;;;;5119732;28;20395;-82
2022/03/29 03:26:33;;;;;;;14.00;9.07;;;10.10;99.90;;;;;;5105088;28;20383;-82
2022/03/29 03:29:17;;;;;;;12.43;8.30;;;10.00;99.90;;;;;;5120739;28;20391;-82
2022/03/29 03:32:04;;;;;;;17.23;9.40;;;9.90;99.90;;;;;;5120456;28;20428;-82
2022/03/29 03:34:48;;;;;;;15.27;9.53;;;9.80;99.90;;;;;;5120315;28;20399;-82
2022/03/29 03:37:34;;;;;;;12.20;8.00;;;9.70;99.90;;;;;;5120182;28;20375;-82
2022/03/29 03:40:19;;;;;;;12.30;9.07;;;9.70;99.90;;;;;;5120163;28;20508;-82
2022/03/29 03:43:04;;;;;;;12.90;8.80;;;9.80;99.90;;;;;;5120079;28;20371;-82
2022/03/29 03:45:49;;;;;;;12.40;9.27;;;9.70;99.90;;;;;;5113908;28;20403;-82
2022/03/29 03:48:34;;;;;;;13.30;9.33;;;9.70;99.90;;;;;;5095923;28;20472;-82
2022/03/29 03:51:21;;;;;;;18.03;8.13;;;9.70;99.90;;;;;;5099784;28;20439;-83
2022/03/29 03:54:06;;;;;;;10.10;9.03;;;9.60;99.90;;;;;;5099873;28;20384;-83
2022/03/29 03:56:50;;;;;;;11.53;8.87;;;9.70;99.90;;;;;;5099898;28;20450;-82
2022/03/29 03:59:35;;;;;;;12.63;8.97;;;9.60;99.90;;;;;;5100085;28;20427;-81
2022/03/29 04:02:20;;;;;;;10.47;8.47;;;9.70;99.90;;;;;;5099680;28;20468;-82
2022/03/29 04:05:08;;;;;;;16.93;8.90;;;9.80;99.90;;;;;;5100146;28;20857;-83
2022/03/29 04:07:52;;;;;;;14.40;10.43;;;9.80;99.90;;;;;;5100735;28;20400;-82
2022/03/29 04:10:37;;;;;;;15.97;9.67;;;9.90;99.90;;;;;;5099988;28;20464;-82
2022/03/29 04:13:21;;;;;;;11.30;7.30;;;9.80;99.90;;;;;;5101294;28;20434;-82
2022/03/29 04:16:05;;;;;;;13.83;9.37;;;9.90;99.90;;;;;;5100225;28;20797;-83
2022/03/29 04:18:50;;;;;;;13.30;9.43;;;9.80;99.90;;;;;;5100760;28;20399;-83
2022/03/29 04:21:34;;;;;;;22.20;9.87;;;9.80;99.90;;;;;;5100697;28;20403;-83
2022/03/29 04:24:19;;;;;;;13.80;9.07;;;9.80;99.90;;;;;;5102664;28;20797;-79
2022/03/29 04:27:05;;;;;;;12.00;8.63;;;9.70;99.90;;;;;;5089014;28;20411;-79
2022/03/29 04:29:49;;;;;;;19.70;11.77;;;9.70;99.90;;;;;;5104839;28;20439;-79
2022/03/29 04:32:36;;;;;;;16.73;10.50;;;9.60;99.90;;;;;;5105584;28;20380;-79
2022/03/29 04:35:21;;;;;;;17.30;9.43;;;9.40;99.90;;;;;;5101633;28;20416;-82
2022/03/29 04:38:05;;;;;;;16.37;10.17;;;9.30;99.90;;;;;;5121125;28;20419;-81
2022/03/29 04:40:50;;;;;;;14.00;9.17;;;9.30;99.90;;;;;;5121275;28;20395;-82
2022/03/29 04:43:35;;;;;;;11.33;7.73;;;9.30;99.90;;;;;;5110048;28;20407;-82
2022/03/29 04:46:19;;;;;;;11.83;8.43;;;9.30;99.90;;;;;;5103985;28;20449;-82
2022/03/29 04:49:04;;;;;;;11.00;8.83;;;9.40;99.90;;;;;;5088369;28;20376;-83
2022/03/29 04:51:48;;;;;;;15.83;9.37;;;9.20;99.90;;;;;;5102481;28;20489;-82
2022/03/29 04:54:33;;;;;;;16.03;8.87;;;9.40;99.90;;;;;;5103064;28;20456;-82
2022/03/29 04:57:17;;;;;;;10.03;8.47;;;9.40;99.90;;;;;;5102879;28;20405;-82
2022/03/29 05:00:04;;;;;;;8.90;8.00;;;9.40;99.90;;;;;;5103540;28;20380;-83
2022/03/29 05:02:51;;;;;;;12.13;7.47;;;9.40;99.90;;;;;;5103582;28;20415;-82
2022/03/29 05:05:35;;;;;;;12.03;8.80;;;9.30;99.90;;;;;;5060111;28;20438;-81
2022/03/29 05:08:20;;;;;;;9.67;8.63;;;9.30;99.90;;;;;;5100747;28;20464;-81
2022/03/29 05:11:04;;;;;;;11.60;8.20;;;9.30;99.90;;;;;;5099770;28;20443;-82
2022/03/29 05:13:50;;;;;;;9.47;7.63;;;9.20;99.90;;;;;;5101221;28;20474;-84
2022/03/29 05:16:34;;;;;;;15.40;9.83;;;9.30;99.90;;;;;;5090665;28;20392;-81
2022/03/29 05:19:18;;;;;;;10.37;7.63;;;9.30;99.90;;;;;;5101796;28;20391;-82
2022/03/29 05:22:03;;;;;;;12.50;8.40;;;9.40;99.90;;;;;;5072806;28;20946;-83
2022/03/29 05:24:48;;;;;;;13.90;9.30;;;9.40;99.90;;;;;;5101705;28;20412;-83
2022/03/29 05:27:33;;;;;;;15.73;8.70;;;9.40;99.90;;;;;;5103277;28;20531;-83
2022/03/29 05:30:19;;;;;;;10.90;9.90;;;9.30;99.90;;;;;;5103725;28;20435;-82
2022/03/29 05:33:04;;;;;;;10.97;7.43;;;9.30;99.90;;;;;;5101723;28;20400;-82
2022/03/29 05:35:49;;;;;;;16.43;10.50;;;9.40;99.90;;;;;;5102041;28;20438;-83
2022/03/29 05:38:34;;;;;;;14.07;8.47;;;9.30;99.90;;;;;;5085341;28;20388;-84
2022/03/29 05:41:20;;;;;;;12.07;7.80;;;9.40;99.90;;;;;;5095965;28;20391;-84
2022/03/29 05:44:05;;;;;;;12.20;9.73;;;9.40;99.90;;;;;;5084521;28;20375;-82
2022/03/29 05:49:44;;;;;;;14.03;9.50;;;9.40;99.90;;;;;;5085264;28;20411;-82
2022/03/29 05:52:29;;;;;;;21.00;10.43;;;9.40;99.90;;;;;;5069525;28;20397;-83
2022/03/29 05:55:13;;;;;;;20.17;10.57;;;9.40;99.90;;;;;;5099991;28;20512;-82
2022/03/29 05:57:58;;;;;;;12.73;9.10;;;9.40;99.90;;;;;;5099739;28;20419;-83
2022/03/29 06:00:43;;;;;;;16.20;8.40;;;9.30;99.90;;;;;;5084642;28;20388;-83
2022/03/29 06:03:28;;;;;;;12.53;8.73;;;9.50;99.90;;;;;;5074213;28;20434;-83
2022/03/29 06:06:14;;;;;;;14.93;9.60;;;9.60;99.90;;;;;;5101705;28;20412;-82
2022/03/29 06:08:59;;;;;;;10.97;7.43;;;9.50;99.90;;;;;;5105204;28;20455;-84
2022/03/29 06:11:43;;;;;;;20.33;12.03;;;9.60;99.90;;;;;;5104929;28;20459;-83
2022/03/29 06:14:28;;;;;;;15.00;10.80;;;9.60;99.90;;;;;;5105124;28;20410;-84
2022/03/29 06:17:15;;;;;;;25.20;11.67;;;9.50;99.90;;;;;;5114200;28;20454;-84
2022/03/29 06:20:03;;;;;;;14.07;9.73;;;9.60;99.90;;;;;;5089232;28;20411;-83
2022/03/29 06:22:48;;;;;;;16.53;9.27;;;9.60;99.90;;;;;;5101422;28;20803;-82
2022/03/29 06:25:34;;;;;;;11.97;9.67;;;9.70;99.90;;;;;;5101286;28;20499;-82
2022/03/29 06:28:19;;;;;;;23.17;9.73;;;9.70;99.90;;;;;;5121476;27;20452;-82
2022/03/29 06:31:04;;;;;;;15.80;10.63;;;9.70;99.90;;;;;;5102404;28;20448;-81
2022/03/29 06:33:49;;;;;;;10.87;8.07;;;9.80;99.90;;;;;;5111605;28;20419;-83
2022/03/29 06:36:34;;;;;;;18.63;10.23;;;9.90;99.90;;;;;;5105947;28;20473;-83
2022/03/29 06:39:18;;;;;;;11.47;9.07;;;9.90;99.90;;;;;;5105750;28;20473;-82
2022/03/29 06:42:03;;;;;;;15.23;9.33;;;9.90;99.90;;;;;;5103299;28;20456;-84
2022/03/29 06:44:48;;;;;;;20.00;10.43;;;9.80;99.90;;;;;;5102668;28;20424;-83
2022/03/29 06:47:33;;;;;;;12.30;9.00;;;10.00;99.90;;;;;;5098399;28;20880;-83
2022/03/29 06:50:18;;;;;;;18.03;10.13;;;10.00;99.90;;;;;;5097562;28;20537;-83
2022/03/29 06:53:04;;;;;;;15.20;9.17;;;10.10;99.90;;;;;;5077253;28;20500;-84
2022/03/29 06:55:51;;;;;;;14.20;10.93;;;10.20;99.90;;;;;;5094004;28;20458;-84
2022/03/29 06:58:36;;;;;;;15.00;10.17;;;10.30;99.90;;;;;;5091419;28;21011;-83
2022/03/29 07:01:22;;;;;;;18.10;9.03;;;10.30;99.90;;;;;;5081547;28;20435;-84
2022/03/29 07:04:08;;;;;;;13.70;8.87;;;10.30;99.90;;;;;;5054396;28;20999;-83
2022/03/29 07:06:53;;;;;;;12.90;9.87;;;10.40;99.90;;;;;;5077939;28;20467;-83
2022/03/29 07:12:53;;;;;;;12.10;9.50;;;10.50;99.90;;;;;;5089138;28;20419;-82
2022/03/29 07:15:37;;;;;;;14.20;8.90;;;10.70;99.90;;;;;;5092011;28;20440;-83
2022/03/29 07:18:22;;;;;;;9.60;8.60;;;10.80;99.90;;;;;;5096293;28;20423;-84
2022/03/29 07:21:07;;;;;;;18.23;9.70;;;10.70;99.90;;;;;;5092523;28;20430;-83
2022/03/29 07:23:51;;;;;;;11.63;8.70;;;10.60;99.90;;;;;;5095269;28;20467;-82
2022/03/29 07:26:37;;;;;;;12.60;8.50;;;10.70;99.90;;;;;;5092897;28;20423;-84
2022/03/29 07:29:21;;;;;;;14.53;10.43;;;10.80;99.90;;;;;;5078615;28;20456;-84
2022/03/29 07:32:09;;;;;;;12.60;9.10;;;10.80;99.90;;;;;;5095463;28;20422;-82
2022/03/29 07:34:54;;;;;;;11.27;8.77;;;10.80;99.90;;;;;;5079670;28;20416;-83
2022/03/29 07:37:39;;;;;;;12.30;9.20;;;10.90;99.90;;;;;;5087174;28;20505;-83
2022/03/29 07:40:26;;;;;;;12.00;9.60;;;10.90;99.90;;;;;;5094171;28;20428;-83
2022/03/29 07:43:12;;;;;;;20.83;9.77;;;11.00;99.90;;;;;;5097437;28;20455;-83
2022/03/29 07:45:58;;;;;;;15.13;10.10;;;10.60;99.90;;;;;;5070102;28;20427;-83
2022/03/29 07:48:42;;;;;;;18.33;10.30;;;10.60;99.90;;;;;;5087601;28;20435;-83
2022/03/29 07:51:27;;;;;;;16.40;9.83;;;10.80;99.90;;;;;;5092607;28;20493;-83
2022/03/29 07:54:12;;;;;;;18.10;9.07;;;11.00;99.90;;;;;;5100075;28;20489;-84
2022/03/29 07:56:56;;;;;;;16.97;9.97;;;11.00;99.90;;;;;;5092927;28;20419;-84
2022/03/29 07:59:41;;;;;;;14.83;11.20;;;11.10;99.90;;;;;;5093087;28;20806;-84
2022/03/29 08:02:25;;;;;;;11.43;10.00;;;11.20;99.90;;;;;;5095755;28;20415;-84
2022/03/29 08:05:11;;;;;;;14.87;9.13;;;11.30;99.90;;;;;;5092398;28;20500;-84
2022/03/29 08:07:57;;;;;;;13.33;11.37;;;11.40;99.90;;;;;;5094477;28;20423;-83
2022/03/29 08:10:43;;;;;;;11.13;9.77;;;11.30;99.90;;;;;;5097682;28;20835;-82
2022/03/29 08:13:28;;;;;;;16.80;10.37;;;11.30;99.90;;;;;;5098132;28;20526;-84
2022/03/29 08:16:13;;;;;;;11.10;9.53;;;11.50;99.90;;;;;;5095086;28;20412;-84
2022/03/29 08:18:59;;;;;;;17.17;11.00;;;11.60;99.90;;;;;;5094654;28;20438;-83
2022/03/29 08:21:50;;;;;;;15.13;9.50;;;11.60;99.90;;;;;;5096570;28;20432;-84
2022/03/29 08:24:35;;;;;;;15.33;10.20;;;11.60;99.90;;;;;;5096779;28;20436;-83
2022/03/29 08:27:19;;;;;;;15.70;10.77;;;11.70;99.90;;;;;;5079709;28;20465;-84
2022/03/29 08:30:06;;;;;;;17.90;10.50;;;11.70;99.90;;;;;;5094435;28;20455;-83
2022/03/29 08:32:51;;;;;;;12.93;9.40;;;11.80;99.90;;;;;;5083707;28;20507;-83
2022/03/29 08:35:38;;;;;;;15.43;10.40;;;11.80;99.90;;;;;;5098674;28;20420;-84
2022/03/29 08:38:22;;;;;;;24.10;10.77;;;11.80;99.90;;;;;;5100687;28;20416;-84
2022/03/29 08:41:08;;;;;;;18.27;10.93;;;11.80;99.90;;;;;;5094210;28;20458;-83
2022/03/29 08:43:53;;;;;;;18.50;11.07;;;12.00;99.90;;;;;;5100558;27;20427;-83
2022/03/29 08:46:41;;;;;;;13.07;10.13;;;11.90;99.90;;;;;;5098223;28;20470;-83
2022/03/29 08:49:27;;;;;;;15.13;10.50;;;12.10;99.90;;;;;;5071102;28;20439;-84
2022/03/29 08:52:12;;;;;;;16.73;12.07;;;12.20;99.90;;;;;;5099341;28;20469;-83
2022/03/29 08:54:57;;;;;;;15.03;11.33;;;12.30;99.90;;;;;;5087786;28;20454;-84
2022/03/29 08:57:41;;;;;;;13.57;11.87;;;12.40;99.90;;;;;;5097794;28;20435;-83
2022/03/29 09:00:26;;;;;;;23.57;12.87;;;12.30;99.90;;;;;;5100805;28;20439;-83
2022/03/29 09:03:11;;;;;;;15.87;10.60;;;12.50;99.90;;;;;;5103405;28;20429;-83
2022/03/29 09:06:11;;;;;;;15.67;11.37;;;12.50;99.90;;;;;;5095518;28;20427;-82
2022/03/29 09:08:56;;;;;;;22.07;11.50;;;12.70;99.90;;;;;;5113246;28;21143;-83
2022/03/29 09:11:43;;;;;;;21.50;13.90;;;12.70;99.90;;;;;;5083982;28;20463;-81
2022/03/29 09:14:33;;;;;;;32.30;12.87;;;12.80;99.90;;;;;;5098857;28;20501;-84
2022/03/29 09:17:34;;;;;;;17.40;12.50;;;13.00;99.90;;;;;;5101802;28;20473;-83
2022/03/29 09:20:21;;;;;;;16.90;11.67;;;12.90;99.90;;;;;;5057539;28;20494;-83
2022/03/29 09:23:14;;;;;;;20.30;12.63;;;13.00;99.90;;;;;;5069834;28;20430;-84
2022/03/29 09:26:00;;;;;;;16.90;12.53;;;13.20;99.90;;;;;;5095987;28;20525;-82
2022/03/29 09:28:50;;;;;;;17.53;13.20;;;13.40;99.90;;;;;;5032171;28;20772;-81
2022/03/29 09:31:35;;;;;;;20.17;14.27;;;13.50;99.90;;;;;;5060370;28;20464;-81
2022/03/29 09:34:20;;;;;;;21.10;12.40;;;13.60;99.90;;;;;;5062668;28;20472;-82
2022/03/29 09:37:07;;;;;;;20.73;13.00;;;13.50;99.90;;;;;;5053135;28;20521;-82
2022/03/29 09:39:51;;;;;;;17.50;11.90;;;13.70;99.90;;;;;;5063112;28;20481;-83
2022/03/29 09:42:39;;;;;;;23.77;15.10;;;13.90;99.90;;;;;;5053751;28;20520;-82
2022/03/29 09:45:44;;;;;;;25.10;13.67;;;14.10;99.90;;;;;;5061147;28;20218;-80
2022/03/29 09:48:32;;;;;;;17.10;12.33;;;14.30;99.90;;;;;;5067502;28;20982;-82
2022/03/29 09:51:37;;;;;;;25.90;15.60;;;14.40;99.90;;;;;;5059874;28;20577;-82
2022/03/29 09:54:23;;;;;;;25.50;13.20;;;14.20;99.90;;;;;;5015330;28;20509;-82
2022/03/29 09:57:09;;;;;;;20.92;13.45;;;14.80;99.90;;;;;;5019283;28;20420;-83
2022/03/29 09:59:53;;;;;;;16.70;13.00;;;14.80;99.90;;;;;;5030049;28;20258;-80
2022/03/29 10:02:41;;;;;;;22.17;15.33;;;15.20;99.90;;;;;;5035542;28;20449;-82
2022/03/29 10:05:27;;;;;;;19.70;15.00;;;15.00;99.90;;;;;;5027877;28;20459;-83
2022/03/29 10:11:15;;;;;;;21.73;13.70;;;15.70;99.90;;;;;;5029781;28;20503;-82
2022/03/29 10:14:02;;;;;;;20.43;14.00;;;16.20;99.90;;;;;;5003893;28;20447;-82
2022/03/29 10:16:48;;;;;;;22.63;13.50;;;16.70;99.90;;;;;;4990361;28;20487;-82
2022/03/29 10:19:34;;;;;;;22.03;14.60;;;17.00;99.90;;;;;;5013254;28;20488;-83
2022/03/29 10:22:18;;;;;;;20.33;14.40;;;17.20;99.90;;;;;;5028624;28;20423;-82
2022/03/29 10:25:04;;;;;;;18.30;13.30;;;17.30;99.90;;;;;;5002690;28;21006;-81
2022/03/29 10:27:49;;;;;;;26.47;14.80;;;17.50;99.90;;;;;;5030170;28;20434;-82
2022/03/29 10:30:37;;;;;;;31.03;14.00;;;17.10;99.90;;;;;;5060505;28;20519;-82
2022/03/29 10:33:25;;;;;;;20.10;13.23;;;17.30;99.90;;;;;;5036882;28;20418;-83
2022/03/29 10:36:14;;;;;;;21.80;14.50;;;17.60;99.90;;;;;;5060761;28;20508;-83
2022/03/29 10:38:58;;;;;;;29.03;15.70;;;17.40;99.90;;;;;;5087771;28;20430;-82
2022/03/29 10:41:49;;;;;;;17.33;12.50;;;17.70;99.90;;;;;;5083775;28;20423;-82
2022/03/29 10:45:03;;;;;;;25.03;16.53;;;18.20;99.90;;;;;;5097071;28;20603;-82
2022/03/29 10:48:02;;;;;;;20.63;15.57;;;17.90;99.90;;;;;;5075657;28;20455;-81
2022/03/29 10:50:55;;;;;;;20.63;14.40;;;18.30;99.90;;;;;;5102091;28;20490;-83
2022/03/29 10:53:45;;;;;;;21.40;16.10;;;17.80;99.90;;;;;;5103079;28;20423;-83
2022/03/29 10:56:30;;;;;;;23.83;16.30;;;17.90;99.90;;;;;;5094436;28;20467;-82
2022/03/29 10:59:15;;;;;;;31.13;14.40;;;17.60;99.90;;;;;;5085700;28;20477;-80
2022/03/29 11:02:20;;;;;;;18.90;15.43;;;17.10;99.90;;;;;;5099258;28;20432;-82
2022/03/29 11:05:10;;;;;;;22.57;14.57;;;16.90;99.90;;;;;;5061409;28;20425;-83
2022/03/29 11:08:10;;;;;;;22.67;15.37;;;16.40;99.90;;;;;;5075656;28;20420;-82
2022/03/29 11:10:54;;;;;;;24.57;14.00;;;17.10;99.90;;;;;;5086189;28;20550;-82
2022/03/29 11:13:39;;;;;;;20.10;14.40;;;17.40;99.90;;;;;;5083839;28;20430;-82
2022/03/29 11:16:29;;;;;;;22.37;14.67;;;16.50;99.90;;;;;;5061274;28;20535;-83
2022/03/29 11:19:37;;;;;;;26.13;15.30;;;17.10;99.90;;;;;;5084384;28;20919;-82
2022/03/29 11:22:42;;;;;;;25.00;13.23;;;17.70;99.90;;;;;;5070966;28;20459;-78
2022/03/29 11:25:28;;;;;;;20.60;13.67;;;17.70;99.90;;;;;;5088370;28;20437;-80
2022/03/29 11:28:16;;;;;;;25.97;16.17;;;17.40;99.90;;;;;;5061350;28;21059;-79
2022/03/29 11:31:00;;;;;;;20.57;15.60;;;17.30;99.90;;;;;;5062607;28;20474;-79
2022/03/29 11:33:49;;;;;;;22.17;13.70;;;17.30;99.90;;;;;;5074112;28;20421;-80
2022/03/29 11:36:36;;;;;;;18.60;14.10;;;16.50;99.90;;;;;;5088225;28;20435;-83
2022/03/29 11:39:22;;;;;;;26.13;14.93;;;17.30;99.90;;;;;;5084967;28;20822;-81
2022/03/29 11:42:07;;;;;;;28.03;16.73;;;17.50;99.90;;;;;;5107928;28;20497;-78
2022/03/29 11:44:52;;;;;;;22.37;15.53;;;18.00;99.90;;;;;;5085154;28;20423;-80
2022/03/29 11:47:37;;;;;;;20.97;13.80;;;17.70;99.90;;;;;;5096523;28;20512;-83
2022/03/29 11:50:37;;;;;;;23.00;14.60;;;18.20;99.90;;;;;;5095521;28;20460;-79
2022/03/29 11:53:31;;;;;;;19.90;14.13;;;17.30;99.90;;;;;;5097874;28;20447;-82
2022/03/29 11:56:19;;;;;;;18.07;13.43;;;17.70;99.90;;;;;;5096884;28;20439;-80
2022/03/29 11:59:13;;;;;;;28.30;15.97;;;17.90;99.90;;;;;;5101274;28;20419;-79
2022/03/29 12:02:05;;;;;;;23.03;14.40;;;18.00;99.90;;;;;;5089236;28;20436;-80
2022/03/29 12:04:50;;;;;;;18.70;13.57;;;18.00;99.90;;;;;;5062156;28;20934;-79
2022/03/29 12:07:43;;;;;;;22.87;13.90;;;18.30;99.90;;;;;;5048079;28;20509;-82
2022/03/29 12:10:30;;;;;;;21.43;15.53;;;18.20;99.90;;;;;;5066686;28;20464;-79
2022/03/29 12:13:16;;;;;;;26.73;15.67;;;17.80;99.90;;;;;;5075973;28;20433;-79
2022/03/29 12:16:19;;;;;;;25.37;14.73;;;18.70;99.90;;;;;;5058125;28;20497;-80
2022/03/29 12:19:11;;;;;;;17.43;14.37;;;19.00;99.90;;;;;;5062589;28;20464;-79
2022/03/29 12:22:02;;;;;;;23.40;15.07;;;19.00;98.90;;;;;;5064397;28;20861;-79
2022/03/29 12:24:48;;;;;;;20.50;13.93;;;19.30;97.10;;;;;;5058861;28;20432;-79
2022/03/29 12:27:33;;;;;;;19.37;13.43;;;19.30;96.60;;;;;;5055974;28;20455;-79
2022/03/29 12:30:18;;;;;;;25.70;16.03;;;18.40;97.20;;;;;;5075873;28;20600;-80
2022/03/29 12:33:03;;;;;;;20.03;14.20;;;18.70;99.00;;;;;;5062065;28;20505;-81
2022/03/29 12:36:02;;;;;;;17.07;13.63;;;18.80;97.90;;;;;;5087982;28;20511;-82
2022/03/29 12:38:52;;;;;;;16.17;13.00;;;19.60;95.80;;;;;;5071231;28;20862;-82
2022/03/29 12:41:44;;;;;;;18.43;11.70;;;19.60;94.40;;;;;;5088065;28;20423;-82
2022/03/29 12:44:31;;;;;;;15.90;11.53;;;19.30;95.50;;;;;;5098894;28;20451;-83
2022/03/29 12:47:17;;;;;;;22.40;12.60;;;19.50;93.70;;;;;;5109154;28;20416;-82
2022/03/29 12:50:03;;;;;;;21.23;14.23;;;19.00;95.20;;;;;;5096871;28;20433;-82
2022/03/29 12:52:48;;;;;;;19.87;14.77;;;18.30;96.70;;;;;;5102309;28;20466;-79
2022/03/29 12:55:34;;;;;;;11.63;9.90;;;17.40;96.70;;;;;;5085469;28;20950;-82
2022/03/29 12:58:31;;;;;;;12.67;9.30;;;18.50;95.00;;;;;;5105498;28;20805;-83
2022/03/29 13:01:26;;;;;;;11.33;7.40;;;19.20;92.50;;;;;;5098210;28;20618;-84
2022/03/29 13:04:11;;;;;;;10.10;7.83;;;19.50;90.40;;;;;;5097576;28;20581;-84
2022/03/29 13:06:57;;;;;;;7.47;5.37;;;19.30;90.40;;;;;;5095056;28;20522;-84
2022/03/29 13:09:59;;;;;;;9.23;6.47;;;19.40;87.90;;;;;;5074370;28;20542;-84
2022/03/29 13:13:01;;;;;;;7.30;5.80;;;19.50;87.20;;;;;;5087554;28;20639;-85
2022/03/29 13:16:24;;;;;;;11.20;5.53;;;19.40;91.10;;;;;;5082947;28;20443;-85
2022/03/29 13:19:14;;;;;;;7.00;4.77;;;19.70;90.50;;;;;;5026471;28;20486;-83
2022/03/29 13:22:02;;;;;;;7.77;4.97;;;19.80;88.50;;;;;;5011471;28;20471;-84
2022/03/29 13:24:47;;;;;;;4.73;4.23;;;19.80;86.20;;;;;;5036064;28;20430;-84
2022/03/29 13:27:32;;;;;;;7.70;4.80;;;19.80;87.50;;;;;;5038874;28;20433;-84
2022/03/29 13:30:16;;;;;;;7.93;4.80;;;19.80;86.00;;;;;;5038317;28;20493;-84
2022/03/29 13:33:01;;;;;;;6.50;4.07;;;20.00;82.80;;;;;;5033549;28;20435;-84
2022/03/29 13:35:50;;;;;;;6.20;4.90;;;20.10;83.20;;;;;;5035906;28;20483;-84
2022/03/29 13:38:35;;;;;;;8.37;5.47;;;20.20;80.60;;;;;;5034528;28;20526;-83
2022/03/29 13:41:21;;;;;;;5.90;3.73;;;20.10;79.50;;;;;;5037326;28;20426;-86
2022/03/29 13:44:27;;;;;;;3.60;3.30;;;20.20;79.80;;;;;;5034005;28;20950;-84
2022/03/29 13:47:12;;;;;;;8.10;3.40;;;20.00;76.30;;;;;;4983410;28;20452;-83
2022/03/29 13:49:57;;;;;;;5.87;4.00;;;20.00;80.50;;;;;;4985210;28;20998;-84
2022/03/29 13:52:41;;;;;;;5.50;3.93;;;20.20;78.30;;;;;;5008803;28;20490;-83
2022/03/29 13:55:26;;;;;;;4.80;4.00;;;20.40;78.10;;;;;;5016054;28;20466;-84
2022/03/29 13:58:11;;;;;;;6.43;5.30;;;20.60;76.30;;;;;;5007102;28;20459;-85
2022/03/29 14:00:56;;;;;;;8.40;5.70;;;20.50;77.40;;;;;;5025534;28;20438;-84
2022/03/29 14:03:40;;;;;;;7.17;6.03;;;20.30;80.70;;;;;;5015661;28;20435;-84
2022/03/29 14:06:25;;;;;;;8.90;4.47;;;20.50;79.00;;;;;;5000745;28;20503;-81
2022/03/29 14:09:09;;;;;;;9.50;6.30;;;20.20;81.10;;;;;;4999820;28;20558;-83
2022/03/29 14:11:54;;;;;;;7.90;5.97;;;19.70;81.00;;;;;;5012224;28;20828;-80
2022/03/29 14:14:40;;;;;;;6.97;5.20;;;19.40;83.30;;;;;;5020129;28;20837;-83
2022/03/29 14:17:25;;;;;;;6.80;5.27;;;19.40;80.90;;;;;;5017732;28;20493;-85
2022/03/29 14:20:10;;;;;;;4.70;4.00;;;19.60;78.70;;;;;;5058181;28;20423;-84
2022/03/29 14:22:55;;;;;;;4.83;2.70;;;19.80;80.10;;;;;;5092003;28;20457;-85
2022/03/29 14:25:40;;;;;;;6.57;3.77;;;19.90;74.80;;;;;;5102518;28;20443;-84
2022/03/29 14:28:25;;;;;;;4.23;3.83;;;19.70;75.80;;;;;;5097492;28;20434;-85